createdAt,value
2022-12-29T00:01:09.152Z,11.38
2022-12-29T00:03:37.354Z,12.13
2022-12-29T00:06:05.340Z,10.82
2022-12-29T00:08:42.467Z,14.63
2022-12-29T00:11:12.255Z,6.35
2022-12-29T00:13:59.474Z,9.27
2022-12-29T00:16:28.071Z,11.02
2022-12-29T00:18:55.954Z,8.27
2022-12-29T00:21:43.509Z,9.30
2022-12-29T00:24:23.258Z,6.80
2022-12-29T00:27:18.704Z,11.02
2022-12-29T00:30:05.570Z,15.63
2022-12-29T00:32:52.093Z,10.73
2022-12-29T00:35:26.062Z,8.65
2022-12-29T00:38:13.096Z,18.17
2022-12-29T00:40:59.465Z,9.55
2022-12-29T00:43:46.574Z,11.65
2022-12-29T00:46:19.641Z,14.93
2022-12-29T00:49:06.634Z,13.95
2022-12-29T00:51:35.352Z,12.52
2022-12-29T00:54:02.871Z,3.13
2022-12-29T00:56:30.657Z,17.85
2022-12-29T00:59:01.938Z,10.70
2022-12-29T01:01:30.205Z,9.20
2022-12-29T01:04:02.213Z,12.73
2022-12-29T01:06:33.076Z,9.07
2022-12-29T01:09:20.555Z,11.93
2022-12-29T01:11:49.178Z,10.75
2022-12-29T01:14:17.959Z,15.98
2022-12-29T01:16:46.313Z,10.77
2022-12-29T01:19:14.522Z,10.48
2022-12-29T01:21:42.185Z,12.57
2022-12-29T01:24:10.159Z,8.52
2022-12-29T01:26:38.044Z,11.30
2022-12-29T01:29:06.558Z,11.88
2022-12-29T01:31:35.424Z,12.00
2022-12-29T01:34:03.473Z,16.17
2022-12-29T01:36:31.148Z,17.75
2022-12-29T01:38:59.991Z,16.20
2022-12-29T01:41:28.199Z,14.57
2022-12-29T01:43:57.550Z,11.07
2022-12-29T01:46:27.996Z,12.20
2022-12-29T01:49:15.116Z,11.70
2022-12-29T01:51:45.739Z,12.40
2022-12-29T01:54:40.114Z,16.67
2022-12-29T01:57:10.160Z,13.40
2022-12-29T01:59:46.803Z,17.00
2022-12-29T02:02:15.712Z,12.30
2022-12-29T02:04:49.058Z,14.65
2022-12-29T02:07:20.350Z,10.40
2022-12-29T02:09:51.955Z,13.70
2022-12-29T02:14:47.935Z,11.27
2022-12-29T02:17:41.098Z,14.85
2022-12-29T02:20:28.621Z,7.55
2022-12-29T02:23:12.340Z,6.68
2022-12-29T02:26:00.855Z,10.95
2022-12-29T02:28:28.786Z,6.18
2022-12-29T02:31:15.467Z,13.57
2022-12-29T02:33:55.632Z,4.05
2022-12-29T02:36:23.545Z,3.65
2022-12-29T02:39:10.291Z,4.93
2022-12-29T02:41:50.948Z,3.78
2022-12-29T02:44:27.338Z,6.38
2022-12-29T02:47:02.503Z,3.17
2022-12-29T02:49:35.082Z,3.88
2022-12-29T02:52:11.094Z,4.13
2022-12-29T02:54:43.244Z,3.55
2022-12-29T02:57:14.179Z,2.70
2022-12-29T02:59:44.519Z,2.05
2022-12-29T03:02:18.627Z,2.40
2022-12-29T03:05:07.758Z,1.20
2022-12-29T03:07:39.587Z,2.10
2022-12-29T03:10:12.911Z,1.58
2022-12-29T03:13:07.630Z,3.10
2022-12-29T03:16:04.374Z,1.90
2022-12-29T03:18:52.280Z,1.88
2022-12-29T03:21:50.194Z,2.05
2022-12-29T03:24:21.896Z,1.20
2022-12-29T03:26:51.291Z,0.93
2022-12-29T03:29:22.290Z,1.52
2022-12-29T03:31:53.700Z,0.93
2022-12-29T03:34:22.669Z,1.52
2022-12-29T03:37:12.275Z,0.70
2022-12-29T03:39:40.111Z,0.55
2022-12-29T03:42:10.972Z,0.60
2022-12-29T03:44:41.079Z,0.60
2022-12-29T03:47:12.218Z,1.10
2022-12-29T03:49:39.789Z,1.35
2022-12-29T03:52:09.465Z,2.53
2022-12-29T03:54:43.332Z,0.63
2022-12-29T03:57:12.182Z,2.15
2022-12-29T04:00:00.232Z,2.15
2022-12-29T04:02:31.563Z,1.42
2022-12-29T04:04:59.691Z,1.38
2022-12-29T04:07:27.606Z,0.98
2022-12-29T04:09:56.770Z,1.77
2022-12-29T04:12:27.628Z,3.20
2022-12-29T04:14:55.541Z,0.80
2022-12-29T04:17:23.925Z,0.80
2022-12-29T04:20:14.874Z,1.52
2022-12-29T04:22:42.838Z,2.42
2022-12-29T04:25:11.103Z,1.05
2022-12-29T04:27:39.511Z,0.60
2022-12-29T04:30:24.058Z,1.73
2022-12-29T04:33:14.312Z,1.65
2022-12-29T04:35:44.218Z,2.55
2022-12-29T04:38:12.675Z,2.30
2022-12-29T04:40:41.809Z,2.95
2022-12-29T04:43:11.176Z,3.22
2022-12-29T04:46:01.817Z,1.57
2022-12-29T04:48:36.772Z,1.10
2022-12-29T04:51:26.684Z,2.67
2022-12-29T04:53:55.040Z,1.08
2022-12-29T04:56:24.624Z,2.03
2022-12-29T04:58:52.563Z,2.50
2022-12-29T05:01:22.439Z,4.30
2022-12-29T05:03:52.246Z,3.58
2022-12-29T05:06:20.348Z,2.67
2022-12-29T05:08:48.332Z,2.05
2022-12-29T05:11:16.573Z,1.60
2022-12-29T05:13:48.950Z,4.55
2022-12-29T05:16:18.334Z,3.80
2022-12-29T05:18:46.256Z,5.00
2022-12-29T05:21:15.493Z,1.30
2022-12-29T05:23:45.582Z,1.77
2022-12-29T05:26:13.594Z,2.88
2022-12-29T05:29:05.282Z,6.65
2022-12-29T05:31:34.592Z,5.82
2022-12-29T05:34:02.274Z,2.03
2022-12-29T05:36:35.822Z,2.85
2022-12-29T05:39:06.059Z,6.97
2022-12-29T05:41:36.150Z,4.82
2022-12-29T05:44:23.951Z,3.53
2022-12-29T05:47:10.944Z,2.92
2022-12-29T05:49:47.793Z,5.63
2022-12-29T05:52:30.715Z,6.20
2022-12-29T05:54:58.883Z,2.35
2022-12-29T05:57:28.461Z,8.63
2022-12-29T06:00:06.428Z,6.20
2022-12-29T06:02:42.701Z,4.30
2022-12-29T06:05:10.468Z,7.18
2022-12-29T06:07:40.204Z,6.30
2022-12-29T06:10:08.754Z,5.43
2022-12-29T06:12:54.541Z,4.32
2022-12-29T06:15:22.608Z,6.82
2022-12-29T06:17:52.020Z,6.10
2022-12-29T06:20:19.912Z,4.30
2022-12-29T06:22:49.038Z,5.18
2022-12-29T06:25:17.856Z,6.45
2022-12-29T06:27:46.046Z,3.60
2022-12-29T06:30:14.075Z,6.40
2022-12-29T06:32:42.075Z,7.50
2022-12-29T06:35:12.927Z,3.30
2022-12-29T06:37:47.998Z,8.02
2022-12-29T06:40:16.099Z,5.10
2022-12-29T06:43:12.783Z,7.88
2022-12-29T06:45:46.605Z,5.72
2022-12-29T06:48:14.520Z,3.72
2022-12-29T06:50:42.500Z,3.92
2022-12-29T06:53:10.029Z,5.05
2022-12-29T06:55:38.242Z,8.90
2022-12-29T06:58:06.176Z,4.05
2022-12-29T07:00:34.007Z,4.57
2022-12-29T07:03:02.022Z,5.18
2022-12-29T07:05:32.435Z,4.63
2022-12-29T07:08:00.144Z,5.75
2022-12-29T07:10:27.752Z,8.52
2022-12-29T07:12:55.698Z,7.88
2022-12-29T07:15:23.553Z,6.53
2022-12-29T07:17:51.371Z,5.32
2022-12-29T07:20:24.697Z,8.15
2022-12-29T07:22:53.976Z,4.90
2022-12-29T07:25:21.878Z,3.05
2022-12-29T07:27:49.757Z,6.65
2022-12-29T07:30:17.822Z,2.33
2022-12-29T07:32:45.727Z,8.10
2022-12-29T07:35:13.522Z,6.28
2022-12-29T07:37:41.415Z,6.40
2022-12-29T07:40:09.568Z,6.15
2022-12-29T07:42:37.433Z,4.55
2022-12-29T07:45:07.022Z,4.13
2022-12-29T07:47:38.140Z,5.38
2022-12-29T07:50:06.423Z,5.93
2022-12-29T07:52:34.506Z,5.50
2022-12-29T07:55:02.022Z,11.02
2022-12-29T07:57:32.315Z,7.00
2022-12-29T08:00:00.245Z,5.30
2022-12-29T08:02:28.398Z,8.45
2022-12-29T08:04:55.908Z,7.38
2022-12-29T08:07:23.818Z,4.03
2022-12-29T08:09:51.855Z,10.30
2022-12-29T08:12:20.085Z,5.13
2022-12-29T08:14:47.698Z,10.32
2022-12-29T08:17:15.637Z,4.28
2022-12-29T08:19:43.770Z,6.57
2022-12-29T08:22:13.268Z,4.50
2022-12-29T08:24:45.688Z,5.00
2022-12-29T08:27:20.326Z,6.72
2022-12-29T08:29:49.923Z,4.55
2022-12-29T08:32:17.856Z,6.10
2022-12-29T08:34:46.220Z,5.18
2022-12-29T08:37:15.199Z,9.10
2022-12-29T08:39:42.643Z,6.82
2022-12-29T08:42:12.351Z,3.75
2022-12-29T08:44:45.719Z,7.72
2022-12-29T08:47:13.608Z,6.43
2022-12-29T08:49:41.659Z,5.00
2022-12-29T08:52:11.927Z,4.55
2022-12-29T08:54:41.154Z,6.78
2022-12-29T08:57:09.112Z,6.97
2022-12-29T08:59:43.762Z,7.00
2022-12-29T09:02:18.723Z,3.37
2022-12-29T09:04:50.091Z,6.43
2022-12-29T09:07:18.050Z,9.70
2022-12-29T09:09:45.921Z,8.02
2022-12-29T09:12:13.854Z,10.27
2022-12-29T09:14:43.798Z,10.05
2022-12-29T09:17:30.717Z,6.35
2022-12-29T09:19:59.302Z,6.50
2022-12-29T09:22:26.766Z,5.63
2022-12-29T09:24:56.288Z,8.45
2022-12-29T09:27:24.533Z,7.20
2022-12-29T09:29:52.494Z,8.40
2022-12-29T09:32:22.928Z,7.70
2022-12-29T09:34:51.450Z,7.40
2022-12-29T09:37:22.547Z,13.18
2022-12-29T09:39:54.271Z,8.15
2022-12-29T09:42:25.510Z,6.32
2022-12-29T09:44:54.052Z,5.30
2022-12-29T09:47:24.194Z,10.90
2022-12-29T09:50:17.491Z,6.28
2022-12-29T09:52:48.998Z,7.38
2022-12-29T09:55:23.402Z,10.30
2022-12-29T09:58:02.324Z,10.35
2022-12-29T10:00:54.846Z,7.95
2022-12-29T10:03:25.320Z,8.32
2022-12-29T10:06:11.604Z,12.20
2022-12-29T10:08:42.622Z,11.13
2022-12-29T10:11:16.305Z,9.35
2022-12-29T10:13:44.441Z,9.43
2022-12-29T10:16:41.348Z,9.52
2022-12-29T10:19:15.210Z,9.98
2022-12-29T10:22:12.024Z,15.98
2022-12-29T10:24:41.652Z,11.98
2022-12-29T10:27:12.243Z,13.65
2022-12-29T10:29:49.336Z,12.00
2022-12-29T10:32:17.311Z,10.38
2022-12-29T10:34:47.837Z,12.30
2022-12-29T10:37:40.836Z,13.70
2022-12-29T10:40:18.038Z,16.35
2022-12-29T10:42:47.863Z,14.27
2022-12-29T10:45:16.888Z,10.85
2022-12-29T10:48:16.881Z,12.35
2022-12-29T10:50:44.528Z,9.57
2022-12-29T10:53:17.939Z,15.15
2022-12-29T10:55:45.850Z,15.73
2022-12-29T10:58:15.647Z,13.20
2022-12-29T11:00:49.735Z,11.68
2022-12-29T11:03:37.136Z,9.05
2022-12-29T11:06:14.434Z,23.23
2022-12-29T11:08:55.259Z,11.60
2022-12-29T11:11:35.103Z,14.80
2022-12-29T11:14:14.961Z,16.48
2022-12-29T11:16:45.162Z,13.00
2022-12-29T11:19:27.731Z,14.10
2022-12-29T11:21:55.899Z,11.45
2022-12-29T11:24:26.023Z,9.13
2022-12-29T11:26:58.576Z,14.52
2022-12-29T11:29:30.238Z,15.27
2022-12-29T11:34:38.577Z,8.98
2022-12-29T11:37:12.005Z,9.02
2022-12-29T11:39:40.214Z,13.05
2022-12-29T11:42:14.345Z,12.43
2022-12-29T11:44:46.181Z,14.18
2022-12-29T11:47:21.419Z,11.15
2022-12-29T11:49:55.219Z,9.65
2022-12-29T11:52:25.398Z,10.98
2022-12-29T11:54:53.852Z,8.00
2022-12-29T11:57:23.005Z,7.65
2022-12-29T11:59:56.291Z,9.25
2022-12-29T12:02:42.827Z,10.98
2022-12-29T12:05:20.655Z,8.13
2022-12-29T12:07:51.053Z,11.52
2022-12-29T12:10:26.752Z,10.10
2022-12-29T12:13:17.744Z,14.27
2022-12-29T12:15:52.797Z,10.02
2022-12-29T12:18:24.445Z,10.25
2022-12-29T12:20:52.393Z,9.40
2022-12-29T12:23:28.655Z,12.77
2022-12-29T12:25:59.455Z,11.15
2022-12-29T12:28:37.004Z,8.47
2022-12-29T12:31:12.455Z,7.88
2022-12-29T12:33:44.463Z,13.48
2022-12-29T12:36:41.846Z,9.98
2022-12-29T12:39:13.657Z,14.95
2022-12-29T12:41:46.711Z,7.45
2022-12-29T12:44:43.258Z,9.32
2022-12-29T12:47:37.772Z,6.38
2022-12-29T12:50:40.701Z,10.98
2022-12-29T12:53:27.250Z,10.05
2022-12-29T12:55:55.727Z,6.53
2022-12-29T12:58:36.202Z,8.85
2022-12-29T13:01:26.697Z,15.65
2022-12-29T13:04:14.187Z,13.50
2022-12-29T13:06:47.889Z,13.43
2022-12-29T13:09:18.885Z,8.57
2022-12-29T13:12:05.519Z,4.75
2022-12-29T13:14:41.536Z,12.32
2022-12-29T13:17:22.846Z,13.73
2022-12-29T13:19:53.594Z,12.43
2022-12-29T13:22:38.017Z,10.75
2022-12-29T13:25:15.279Z,13.50
2022-12-29T13:27:52.427Z,11.90
2022-12-29T13:30:24.998Z,12.00
2022-12-29T13:33:07.306Z,13.98
2022-12-29T13:35:53.820Z,8.73
2022-12-29T13:38:27.811Z,20.00
2022-12-29T13:40:57.448Z,6.10
2022-12-29T13:43:28.282Z,6.22
2022-12-29T13:46:00.067Z,10.13
2022-12-29T13:48:36.312Z,10.70
2022-12-29T13:51:05.450Z,8.55
2022-12-29T13:53:46.011Z,16.08
2022-12-29T13:56:34.156Z,7.90
2022-12-29T13:59:39.504Z,8.48
2022-12-29T14:02:27.736Z,11.82
2022-12-29T14:05:26.093Z,7.82
2022-12-29T14:08:05.935Z,10.07
2022-12-29T14:10:37.755Z,13.73
2022-12-29T14:13:16.026Z,11.70
2022-12-29T14:15:47.627Z,15.38
2022-12-29T14:18:18.970Z,9.70
2022-12-29T14:20:52.695Z,12.32
2022-12-29T14:23:35.922Z,9.20
2022-12-29T14:26:06.492Z,26.77
2022-12-29T14:28:35.431Z,10.57
2022-12-29T14:31:07.229Z,9.43
2022-12-29T14:33:35.980Z,11.02
2022-12-29T14:36:36.383Z,9.75
2022-12-29T14:39:04.703Z,11.05
2022-12-29T14:41:38.501Z,12.50
2022-12-29T14:44:06.408Z,16.42
2022-12-29T14:46:55.448Z,9.63
2022-12-29T14:49:26.432Z,5.18
2022-12-29T14:51:55.573Z,10.13
2022-12-29T14:54:46.447Z,10.25
2022-12-29T14:57:43.631Z,5.90
2022-12-29T15:00:26.846Z,4.57
2022-12-29T15:03:07.488Z,10.52
2022-12-29T15:05:51.815Z,15.10
2022-12-29T15:08:33.202Z,8.60
2022-12-29T15:11:03.569Z,9.68
2022-12-29T15:13:39.250Z,12.10
2022-12-29T15:16:23.006Z,14.38
2022-12-29T15:18:50.695Z,16.77
2022-12-29T15:21:19.682Z,15.07
2022-12-29T15:23:47.622Z,20.27
2022-12-29T15:26:22.079Z,9.02
2022-12-29T15:28:53.842Z,11.38
2022-12-29T15:31:30.009Z,13.77
2022-12-29T15:34:13.320Z,12.88
2022-12-29T15:36:42.553Z,12.35
2022-12-29T15:39:27.506Z,18.00
2022-12-29T15:42:15.626Z,9.65
2022-12-29T15:44:44.851Z,7.43
2022-12-29T15:47:23.467Z,9.75
2022-12-29T15:49:52.662Z,14.35
2022-12-29T15:52:21.768Z,10.52
2022-12-29T15:54:51.113Z,10.73
2022-12-29T15:57:26.123Z,14.38
2022-12-29T15:59:54.990Z,9.43
2022-12-29T16:02:27.040Z,7.43
2022-12-29T16:07:53.498Z,8.00
2022-12-29T16:10:41.661Z,9.02
2022-12-29T16:13:40.703Z,11.60
2022-12-29T16:16:10.820Z,13.48
2022-12-29T16:18:38.864Z,15.45
2022-12-29T16:21:07.839Z,16.38
2022-12-29T16:23:38.062Z,8.57
2022-12-29T16:26:08.872Z,12.27
2022-12-29T16:28:42.829Z,9.43
2022-12-29T16:31:24.523Z,11.25
2022-12-29T16:36:35.048Z,11.80
2022-12-29T16:39:13.286Z,7.38
2022-12-29T16:41:41.157Z,12.20
2022-12-29T16:44:19.398Z,10.50
2022-12-29T16:47:01.427Z,10.95
2022-12-29T16:49:29.538Z,7.60
2022-12-29T16:51:57.569Z,7.05
2022-12-29T16:54:26.515Z,15.80
2022-12-29T16:56:54.677Z,8.77
2022-12-29T16:59:43.619Z,8.82
2022-12-29T17:02:22.297Z,7.35
2022-12-29T17:04:51.625Z,11.35
2022-12-29T17:07:21.556Z,8.35
2022-12-29T17:09:49.781Z,14.63
2022-12-29T17:12:37.842Z,11.25
2022-12-29T17:15:09.361Z,7.47
2022-12-29T17:20:15.747Z,9.38
2022-12-29T17:22:43.689Z,7.05
2022-12-29T17:25:15.603Z,9.45
2022-12-29T17:27:52.000Z,6.80
2022-12-29T17:30:21.867Z,9.43
2022-12-29T17:32:54.885Z,9.15
2022-12-29T17:35:23.440Z,8.40
2022-12-29T17:37:52.062Z,7.00
2022-12-29T17:40:22.032Z,12.43
2022-12-29T17:42:51.045Z,10.98
2022-12-29T17:45:23.805Z,14.40
2022-12-29T17:47:51.694Z,8.77
2022-12-29T17:50:21.965Z,9.40
2022-12-29T17:52:55.312Z,5.20
2022-12-29T17:55:34.794Z,4.45
2022-12-29T17:58:22.005Z,15.40
2022-12-29T18:00:52.547Z,11.35
2022-12-29T18:03:36.587Z,7.85
2022-12-29T18:06:06.701Z,14.80
2022-12-29T18:08:38.731Z,7.60
2022-12-29T18:11:26.677Z,13.35
2022-12-29T18:13:54.422Z,10.57
2022-12-29T18:16:23.463Z,12.80
2022-12-29T18:18:51.492Z,7.22
2022-12-29T18:21:20.360Z,10.57
2022-12-29T18:23:48.398Z,8.95
2022-12-29T18:26:27.329Z,11.13
2022-12-29T18:29:00.904Z,11.57
2022-12-29T18:31:30.207Z,7.85
2022-12-29T18:33:59.848Z,7.50
2022-12-29T18:36:28.987Z,9.60
2022-12-29T18:38:56.476Z,11.43
2022-12-29T18:41:26.605Z,8.55
2022-12-29T18:43:54.166Z,12.90
2022-12-29T18:46:23.854Z,7.88
2022-12-29T18:48:52.773Z,11.23
2022-12-29T18:51:22.376Z,9.43
2022-12-29T18:53:50.782Z,9.95
2022-12-29T18:56:18.198Z,8.52
2022-12-29T18:58:45.737Z,6.18
2022-12-29T19:01:31.733Z,7.72
2022-12-29T19:03:59.649Z,13.75
2022-12-29T19:06:27.446Z,10.07
2022-12-29T19:08:55.307Z,10.63
2022-12-29T19:11:24.278Z,12.98
2022-12-29T19:13:52.109Z,9.32
2022-12-29T19:16:21.545Z,15.27
2022-12-29T19:19:05.875Z,11.10
2022-12-29T19:21:36.828Z,14.77
2022-12-29T19:24:04.737Z,17.02
2022-12-29T19:26:38.676Z,21.95
2022-12-29T19:29:08.297Z,15.95
2022-12-29T19:31:37.972Z,15.77
2022-12-29T19:34:05.694Z,15.98
2022-12-29T19:36:33.624Z,18.70
2022-12-29T19:39:01.475Z,17.40
2022-12-29T19:41:28.958Z,15.10
2022-12-29T19:43:56.516Z,15.15
2022-12-29T19:46:25.483Z,17.80
2022-12-29T19:48:58.592Z,17.88
2022-12-29T19:51:26.899Z,15.05
2022-12-29T19:53:55.181Z,15.30
2022-12-29T19:56:23.193Z,11.82
2022-12-29T19:58:51.493Z,17.80
2022-12-29T20:01:20.941Z,14.55
2022-12-29T20:03:49.519Z,11.63
2022-12-29T20:06:18.263Z,9.90
2022-12-29T20:08:46.015Z,19.33
2022-12-29T20:11:17.762Z,15.77
2022-12-29T20:16:18.017Z,14.10
2022-12-29T20:18:46.860Z,18.13
2022-12-29T20:21:16.208Z,11.55
2022-12-29T20:23:45.006Z,11.70
2022-12-29T20:26:24.411Z,14.80
2022-12-29T20:28:52.694Z,14.15
2022-12-29T20:31:32.360Z,12.32
2022-12-29T20:34:01.020Z,13.40
2022-12-29T20:36:31.089Z,15.15
2022-12-29T20:39:00.870Z,11.73
2022-12-29T20:41:31.016Z,16.67
2022-12-29T20:43:59.558Z,14.23
2022-12-29T20:46:33.938Z,10.85
2022-12-29T20:49:04.879Z,14.63
2022-12-29T20:51:59.315Z,15.18
2022-12-29T20:54:20.500Z,10.45
2022-12-29T20:56:48.765Z,13.93
2022-12-29T20:59:27.264Z,11.57
2022-12-29T21:01:56.365Z,12.85
2022-12-29T21:04:24.254Z,14.55
2022-12-29T21:06:51.824Z,9.70
2022-12-29T21:09:20.432Z,13.80
2022-12-29T21:11:48.998Z,10.48
2022-12-29T21:14:17.427Z,10.57
2022-12-29T21:16:45.394Z,14.65
2022-12-29T21:19:13.645Z,14.50
2022-12-29T21:21:41.508Z,6.60
2022-12-29T21:24:09.361Z,12.40
2022-12-29T21:26:37.208Z,12.63
2022-12-29T21:29:05.310Z,15.10
2022-12-29T21:31:35.430Z,15.60
2022-12-29T21:34:04.505Z,9.45
2022-12-29T21:36:33.127Z,10.75
2022-12-29T21:39:03.481Z,12.75
2022-12-29T21:41:32.046Z,15.55
2022-12-29T21:44:18.479Z,12.38
2022-12-29T21:46:47.812Z,15.93
2022-12-29T21:49:16.454Z,13.70
2022-12-29T21:51:49.937Z,12.43
2022-12-29T21:54:37.644Z,16.73
2022-12-29T21:57:06.121Z,9.68
2022-12-29T21:59:52.447Z,10.32
2022-12-29T22:02:45.990Z,14.18
2022-12-29T22:05:33.594Z,16.48
2022-12-29T22:08:20.987Z,11.48
2022-12-29T22:11:08.163Z,17.00
2022-12-29T22:13:37.364Z,14.98
2022-12-29T22:16:10.564Z,17.02
2022-12-29T22:18:39.367Z,23.55
2022-12-29T22:21:07.865Z,10.50
2022-12-29T22:23:37.306Z,14.35
2022-12-29T22:26:06.257Z,14.88
2022-12-29T22:28:37.910Z,16.90
2022-12-29T22:31:06.730Z,19.20
2022-12-29T22:33:34.437Z,11.80
2022-12-29T22:36:02.240Z,15.45
2022-12-29T22:38:29.767Z,15.30
2022-12-29T22:41:00.588Z,11.73
2022-12-29T22:43:30.035Z,11.97
2022-12-29T22:46:05.131Z,13.38
2022-12-29T22:48:33.330Z,18.20
2022-12-29T22:51:01.464Z,21.13
2022-12-29T22:53:29.556Z,25.27
2022-12-29T22:56:11.516Z,15.23
2022-12-29T22:58:43.528Z,17.02
2022-12-29T23:03:39.452Z,16.60
2022-12-29T23:06:09.191Z,17.75
2022-12-29T23:08:39.130Z,16.73
2022-12-29T23:11:09.262Z,11.70
2022-12-29T23:13:37.250Z,15.95
2022-12-29T23:16:05.850Z,11.32
2022-12-29T23:18:33.812Z,17.08
2022-12-29T23:21:01.694Z,14.73
2022-12-29T23:23:49.570Z,17.30
2022-12-29T23:26:19.231Z,14.27
2022-12-29T23:28:47.438Z,12.70
2022-12-29T23:31:15.627Z,17.08
2022-12-29T23:33:43.935Z,17.00
2022-12-29T23:36:11.846Z,13.23
2022-12-29T23:38:39.705Z,14.20
2022-12-29T23:41:07.645Z,11.35
2022-12-29T23:43:35.591Z,18.08
2022-12-29T23:46:08.668Z,12.57
2022-12-29T23:48:37.106Z,15.52
2022-12-29T23:51:08.299Z,11.57
2022-12-29T23:53:38.036Z,9.82
2022-12-29T23:56:07.339Z,11.43
2022-12-29T23:58:36.365Z,8.60
